createdAt,value
2022-11-05T00:02:20.210Z,3.33
2022-11-05T00:07:36.092Z,3.55
2022-11-05T00:12:37.879Z,2.80
2022-11-05T00:17:40.101Z,3.70
2022-11-05T00:22:41.765Z,6.20
2022-11-05T00:27:50.746Z,3.90
2022-11-05T00:32:53.411Z,6.13
2022-11-05T00:37:55.078Z,4.43
2022-11-05T00:42:56.761Z,3.55
2022-11-05T00:47:58.501Z,3.38
2022-11-05T00:53:00.899Z,3.72
2022-11-05T00:58:04.560Z,4.80
2022-11-05T01:03:09.795Z,4.93
2022-11-05T01:08:12.690Z,3.10
2022-11-05T01:13:18.664Z,3.60
2022-11-05T01:18:22.828Z,2.80
2022-11-05T01:23:24.575Z,4.53
2022-11-05T01:28:26.272Z,4.00
2022-11-05T01:33:28.006Z,4.23
2022-11-05T01:38:29.669Z,3.07
2022-11-05T01:43:45.422Z,3.25
2022-11-05T01:48:50.850Z,3.10
2022-11-05T01:54:16.543Z,3.63
2022-11-05T01:59:24.099Z,3.50
2022-11-05T02:04:38.566Z,2.25
2022-11-05T02:10:08.803Z,2.63
2022-11-05T02:15:16.574Z,2.05
2022-11-05T02:20:35.772Z,4.35
2022-11-05T02:25:49.254Z,4.07
2022-11-05T02:31:21.972Z,4.75
2022-11-05T02:37:18.119Z,3.00
2022-11-05T02:42:28.421Z,3.33
2022-11-05T02:47:33.244Z,3.88
2022-11-05T02:52:53.664Z,2.65
2022-11-05T02:57:55.366Z,2.63
2022-11-05T03:02:57.221Z,3.13
2022-11-05T03:08:11.654Z,1.95
2022-11-05T03:13:22.331Z,3.97
2022-11-05T03:18:35.757Z,2.50
2022-11-05T03:24:00.439Z,3.40
2022-11-05T03:29:08.486Z,3.13
2022-11-05T03:34:12.920Z,2.30
2022-11-05T03:39:20.315Z,3.60
2022-11-05T03:44:29.834Z,3.93
2022-11-05T03:49:40.569Z,2.27
2022-11-05T03:54:42.351Z,2.30
2022-11-05T03:59:45.463Z,2.63
2022-11-05T04:04:47.515Z,2.92
2022-11-05T04:09:49.426Z,4.82
2022-11-05T04:14:51.082Z,2.10
2022-11-05T04:19:52.798Z,2.60
2022-11-05T04:24:54.488Z,3.25
2022-11-05T04:29:56.175Z,1.85
2022-11-05T04:34:57.941Z,1.97
2022-11-05T04:39:59.629Z,2.05
2022-11-05T04:45:01.298Z,3.13
2022-11-05T04:50:03.153Z,3.05
2022-11-05T04:55:05.613Z,1.50
2022-11-05T05:00:08.463Z,3.33
2022-11-05T05:05:10.167Z,3.03
2022-11-05T05:10:12.553Z,2.17
2022-11-05T05:15:14.248Z,2.83
2022-11-05T05:20:15.943Z,2.50
2022-11-05T05:25:17.661Z,1.60
2022-11-05T05:30:19.414Z,3.33
2022-11-05T05:35:21.111Z,1.27
2022-11-05T05:40:23.742Z,1.50
2022-11-05T05:45:25.438Z,4.50
2022-11-05T05:50:27.102Z,1.73
2022-11-05T05:55:28.834Z,1.40
2022-11-05T06:00:30.496Z,1.20
2022-11-05T06:05:32.305Z,2.17
2022-11-05T06:10:34.163Z,1.67
2022-11-05T06:15:36.265Z,2.72
2022-11-05T06:20:38.030Z,3.97
2022-11-05T06:25:41.333Z,2.23
2022-11-05T06:30:43.313Z,1.50
2022-11-05T06:35:45.010Z,1.20
2022-11-05T06:40:46.924Z,1.40
2022-11-05T06:45:48.623Z,2.57
2022-11-05T06:50:50.562Z,1.70
2022-11-05T06:55:53.030Z,1.70
2022-11-05T07:00:55.371Z,3.35
2022-11-05T07:05:58.906Z,3.37
2022-11-05T07:11:01.503Z,2.10
2022-11-05T07:16:03.447Z,1.73
2022-11-05T07:21:05.755Z,1.48
2022-11-05T07:26:08.047Z,1.50
2022-11-05T07:31:09.877Z,0.87
2022-11-05T07:36:11.828Z,1.52
2022-11-05T07:41:13.623Z,2.15
2022-11-05T07:46:16.164Z,1.50
2022-11-05T07:51:17.958Z,1.10
2022-11-05T07:56:19.738Z,1.40
2022-11-05T08:01:21.718Z,0.65
2022-11-05T08:06:23.567Z,2.22
2022-11-05T08:11:25.234Z,1.00
2022-11-05T08:16:26.901Z,0.83
2022-11-05T08:21:28.556Z,2.38
2022-11-05T08:26:30.243Z,1.73
2022-11-05T08:31:31.999Z,2.10
2022-11-05T08:36:35.446Z,2.15
2022-11-05T08:41:37.174Z,1.13
2022-11-05T08:46:41.537Z,1.38
2022-11-05T08:51:44.639Z,1.30
2022-11-05T08:56:46.486Z,0.80
2022-11-05T09:01:48.297Z,0.50
2022-11-05T09:06:50.043Z,2.25
2022-11-05T09:12:11.829Z,1.08
2022-11-05T09:17:20.337Z,0.55
2022-11-05T09:22:22.029Z,0.68
2022-11-05T09:27:24.395Z,1.25
2022-11-05T09:32:26.073Z,1.15
2022-11-05T09:37:28.608Z,0.80
2022-11-05T09:42:37.474Z,1.05
2022-11-05T09:47:52.237Z,3.60
2022-11-05T09:52:53.930Z,2.38
2022-11-05T09:57:59.903Z,4.22
2022-11-05T10:03:10.749Z,3.23
2022-11-05T10:08:23.570Z,3.75
2022-11-05T10:13:55.583Z,3.50
2022-11-05T10:19:14.938Z,3.30
2022-11-05T10:24:20.042Z,3.38
2022-11-05T10:29:33.835Z,3.53
2022-11-05T10:34:38.596Z,2.63
2022-11-05T10:39:40.324Z,3.70
2022-11-05T10:45:12.803Z,2.88
2022-11-05T10:50:21.556Z,2.37
2022-11-05T10:55:28.177Z,2.93
2022-11-05T11:00:30.114Z,2.50
2022-11-05T11:05:35.895Z,2.47
2022-11-05T11:11:02.050Z,2.53
2022-11-05T11:16:24.038Z,3.67
2022-11-05T11:21:25.922Z,2.78
2022-11-05T11:26:33.873Z,2.92
2022-11-05T11:31:39.423Z,2.50
2022-11-05T11:36:47.978Z,3.90
2022-11-05T11:41:53.628Z,3.63
2022-11-05T11:47:02.950Z,3.35
2022-11-05T11:52:14.180Z,3.43
2022-11-05T11:57:29.506Z,4.90
2022-11-05T12:03:16.638Z,3.42
2022-11-05T12:08:45.273Z,2.20
2022-11-05T12:13:55.757Z,3.40
2022-11-05T12:19:12.185Z,3.00
2022-11-05T12:24:51.261Z,1.70
2022-11-05T12:30:05.822Z,2.30
2022-11-05T12:35:32.522Z,2.78
2022-11-05T12:40:39.942Z,1.55
2022-11-05T12:45:56.946Z,4.05
2022-11-05T12:51:39.057Z,3.30
2022-11-05T12:56:51.579Z,3.85
2022-11-05T13:02:20.993Z,3.40
2022-11-05T13:07:34.795Z,2.80
2022-11-05T13:12:41.070Z,1.53
2022-11-05T13:18:00.191Z,1.83
2022-11-05T13:23:40.051Z,2.17
2022-11-05T13:28:44.783Z,1.33
2022-11-05T13:33:50.479Z,2.05
2022-11-05T13:39:01.741Z,2.10
2022-11-05T13:44:06.450Z,2.03
2022-11-05T13:49:17.856Z,1.40
2022-11-05T13:54:28.523Z,2.67
2022-11-05T13:59:42.211Z,2.97
2022-11-05T14:04:54.420Z,2.25
2022-11-05T14:10:18.861Z,1.50
2022-11-05T14:15:24.288Z,2.67
2022-11-05T14:20:32.214Z,1.83
2022-11-05T14:25:36.879Z,1.47
2022-11-05T14:30:46.696Z,2.43
2022-11-05T14:35:48.374Z,3.07
2022-11-05T14:40:58.681Z,2.23
2022-11-05T14:46:03.690Z,2.17
2022-11-05T14:51:23.150Z,1.97
2022-11-05T14:56:25.000Z,1.55
2022-11-05T15:02:02.181Z,2.10
2022-11-05T15:07:03.876Z,1.50
2022-11-05T15:12:13.220Z,1.70
2022-11-05T15:17:44.669Z,2.87
2022-11-05T15:22:58.204Z,3.13
2022-11-05T15:28:03.748Z,1.60
2022-11-05T15:33:17.589Z,1.38
2022-11-05T15:38:25.370Z,3.45
2022-11-05T15:43:27.074Z,2.47
2022-11-05T15:48:29.275Z,2.10
2022-11-05T15:54:28.625Z,1.88
2022-11-05T15:59:23.060Z,5.20
2022-11-05T16:04:33.275Z,2.10
2022-11-05T16:09:37.937Z,2.05
2022-11-05T16:14:39.998Z,2.45
2022-11-05T16:19:42.454Z,4.20
2022-11-05T16:24:45.605Z,4.23
2022-11-05T16:29:52.859Z,2.63
2022-11-05T16:35:00.773Z,4.23
2022-11-05T16:40:02.527Z,9.20
2022-11-05T16:45:05.244Z,10.52
2022-11-05T16:50:16.679Z,5.47
2022-11-05T16:55:19.344Z,4.07
2022-11-05T17:00:22.015Z,3.80
2022-11-05T17:05:29.411Z,10.00
2022-11-05T17:10:31.171Z,3.80
2022-11-05T17:15:34.199Z,5.65
2022-11-05T17:20:41.215Z,4.43
2022-11-05T17:25:45.693Z,3.67
2022-11-05T17:30:51.995Z,4.82
2022-11-05T17:35:54.867Z,5.82
2022-11-05T17:40:56.565Z,5.90
2022-11-05T17:46:04.144Z,9.93
2022-11-05T17:51:10.281Z,7.78
2022-11-05T17:56:13.846Z,7.63
2022-11-05T18:01:34.105Z,6.30
2022-11-05T18:06:39.917Z,8.48
2022-11-05T18:11:42.962Z,7.20
2022-11-05T18:16:44.705Z,8.80
2022-11-05T18:21:46.374Z,8.50
2022-11-05T18:26:49.428Z,7.50
2022-11-05T18:31:51.133Z,6.70
2022-11-05T18:36:56.397Z,5.25
2022-11-05T18:41:58.483Z,5.80
2022-11-05T18:47:00.850Z,5.30
2022-11-05T18:52:03.436Z,4.78
2022-11-05T18:57:05.372Z,6.38
2022-11-05T19:02:08.609Z,6.47
2022-11-05T19:07:11.009Z,5.90
2022-11-05T19:12:12.679Z,6.45
2022-11-05T19:17:14.367Z,6.53
2022-11-05T19:22:16.151Z,10.38
2022-11-05T19:27:17.922Z,5.67
2022-11-05T19:32:19.908Z,9.02
2022-11-05T19:37:22.230Z,12.38
2022-11-05T19:42:24.058Z,8.48
2022-11-05T19:47:25.773Z,10.00
2022-11-05T19:52:27.576Z,9.30
2022-11-05T19:57:29.269Z,7.10
2022-11-05T20:02:31.191Z,9.87
2022-11-05T20:07:32.949Z,7.75
2022-11-05T20:12:35.406Z,6.85
2022-11-05T20:17:37.176Z,4.90
2022-11-05T20:22:38.881Z,6.38
2022-11-05T20:27:40.765Z,5.27
2022-11-05T20:32:42.530Z,7.00
2022-11-05T20:37:45.053Z,5.93
2022-11-05T20:42:49.137Z,4.00
2022-11-05T20:47:50.883Z,6.53
2022-11-05T20:52:52.598Z,9.88
2022-11-05T20:57:54.297Z,8.32
2022-11-05T21:02:56.122Z,7.35
2022-11-05T21:07:58.096Z,4.90
2022-11-05T21:12:59.786Z,4.82
2022-11-05T21:18:01.561Z,4.97
2022-11-05T21:23:03.271Z,4.75
2022-11-05T21:28:05.623Z,6.20
2022-11-05T21:33:08.154Z,5.03
2022-11-05T21:38:10.903Z,3.60
2022-11-05T21:43:13.455Z,8.37
2022-11-05T21:48:15.575Z,5.07
2022-11-05T21:53:18.041Z,7.30
2022-11-05T21:58:19.785Z,5.03
2022-11-05T22:03:21.425Z,4.60
2022-11-05T22:08:23.234Z,5.70
2022-11-05T22:13:24.985Z,4.45
2022-11-05T22:18:26.744Z,4.20
2022-11-05T22:23:28.420Z,5.00
2022-11-05T22:28:30.174Z,5.75
2022-11-05T22:33:31.867Z,2.80
2022-11-05T22:38:33.594Z,4.30
2022-11-05T22:43:35.549Z,2.90
2022-11-05T22:48:38.786Z,3.33
2022-11-05T22:53:41.066Z,4.13
2022-11-05T22:58:43.117Z,2.80
2022-11-05T23:03:46.731Z,2.42
2022-11-05T23:08:48.450Z,4.68
2022-11-05T23:13:50.121Z,6.32
2022-11-05T23:18:51.809Z,5.78
2022-11-05T23:23:53.489Z,5.82
2022-11-05T23:28:55.186Z,2.88
2022-11-05T23:33:56.911Z,3.27
2022-11-05T23:38:58.575Z,1.80
2022-11-05T23:44:00.275Z,4.18
2022-11-05T23:49:02.064Z,2.47
2022-11-05T23:54:03.837Z,3.20
2022-11-05T23:59:05.907Z,3.80
